createdAt,value
2023-03-22T00:01:11.734Z,98516.34
2023-03-22T00:04:15.651Z,98521.69
2023-03-22T00:07:19.414Z,98515.50
2023-03-22T00:10:25.660Z,98513.66
2023-03-22T00:13:29.764Z,98520.47
2023-03-22T00:16:34.555Z,98514.91
2023-03-22T00:19:42.134Z,98506.03
2023-03-22T00:22:46.197Z,98503.97
2023-03-22T00:25:51.790Z,98497.56
2023-03-22T00:28:55.664Z,98492.19
2023-03-22T00:31:59.331Z,98491.38
2023-03-22T00:35:03.661Z,98501.28
2023-03-22T00:38:14.080Z,98486.22
2023-03-22T00:41:23.555Z,98489.91
2023-03-22T00:44:27.417Z,98493.63
2023-03-22T00:47:31.834Z,98490.94
2023-03-22T00:50:35.868Z,98487.84
2023-03-22T00:53:43.003Z,98489.13
2023-03-22T00:56:50.384Z,98485.81
2023-03-22T00:59:55.987Z,98480.84
2023-03-22T01:03:04.775Z,98478.19
2023-03-22T01:06:11.185Z,98478.38
2023-03-22T01:09:15.432Z,98462.72
2023-03-22T01:12:21.958Z,98471.78
2023-03-22T01:15:26.007Z,98460.41
2023-03-22T01:18:30.374Z,98460.19
2023-03-22T01:21:34.323Z,98453.97
2023-03-22T01:24:38.181Z,98450.69
2023-03-22T01:27:43.394Z,98446.53
2023-03-22T01:30:47.417Z,98435.38
2023-03-22T01:33:51.418Z,98441.91
2023-03-22T01:36:55.637Z,98430.56
2023-03-22T01:40:00.584Z,98434.47
2023-03-22T01:43:16.078Z,98435.88
2023-03-22T01:46:20.917Z,98451.72
2023-03-22T01:49:32.116Z,98453.78
2023-03-22T01:52:38.889Z,98433.66
2023-03-22T01:55:48.987Z,98444.44
2023-03-22T01:59:02.855Z,98431.66
2023-03-22T02:02:22.377Z,98430.47
2023-03-22T02:05:35.754Z,98428.41
2023-03-22T02:08:41.060Z,98426.97
2023-03-22T02:12:03.463Z,98428.81
2023-03-22T02:15:20.286Z,98415.59
2023-03-22T02:19:09.856Z,98410.44
2023-03-22T02:22:42.088Z,98413.50
2023-03-22T02:26:31.035Z,98409.78
2023-03-22T02:29:46.138Z,98407.63
2023-03-22T02:33:23.621Z,98407.59
2023-03-22T02:37:01.900Z,98403.06
2023-03-22T02:40:16.550Z,98404.69
2023-03-22T02:43:34.591Z,98398.69
2023-03-22T02:46:46.045Z,98390.19
2023-03-22T02:50:01.110Z,98395.50
2023-03-22T02:53:14.872Z,98394.69
2023-03-22T02:56:28.887Z,98395.94
2023-03-22T02:59:38.785Z,98393.53
2023-03-22T03:02:50.170Z,98394.38
2023-03-22T03:06:00.369Z,98385.50
2023-03-22T03:09:06.160Z,98385.31
2023-03-22T03:12:19.484Z,98386.78
2023-03-22T03:15:25.979Z,98387.00
2023-03-22T03:18:45.785Z,98393.88
2023-03-22T03:22:04.284Z,98398.19
2023-03-22T03:25:22.914Z,98389.81
2023-03-22T03:28:39.844Z,98390.63
2023-03-22T03:31:51.635Z,98380.75
2023-03-22T03:35:03.599Z,98382.00
2023-03-22T03:38:14.786Z,98388.00
2023-03-22T03:41:24.006Z,98393.78
2023-03-22T03:44:31.954Z,98391.50
2023-03-22T03:47:38.217Z,98388.63
2023-03-22T03:50:42.774Z,98396.88
2023-03-22T03:53:48.498Z,98395.25
2023-03-22T03:56:52.313Z,98390.91
2023-03-22T03:59:57.681Z,98388.44
2023-03-22T04:03:17.686Z,98383.47
2023-03-22T04:06:36.096Z,98392.75
2023-03-22T04:09:45.970Z,98393.78
2023-03-22T04:12:57.800Z,98392.13
2023-03-22T04:16:03.673Z,98392.97
2023-03-22T04:19:11.878Z,98403.88
2023-03-22T04:22:18.463Z,98403.47
2023-03-22T04:25:23.095Z,98403.47
2023-03-22T04:28:38.058Z,98400.41
2023-03-22T04:31:44.519Z,98406.59
2023-03-22T04:34:58.537Z,98403.91
2023-03-22T04:38:03.032Z,98395.66
2023-03-22T04:41:08.690Z,98384.75
2023-03-22T04:44:18.067Z,98381.88
2023-03-22T04:47:27.830Z,98383.47
2023-03-22T04:50:31.954Z,98389.47
2023-03-22T04:53:39.816Z,98384.31
2023-03-22T04:56:45.326Z,98387.81
2023-03-22T04:59:50.792Z,98385.56
2023-03-22T05:02:56.568Z,98391.53
2023-03-22T05:06:11.232Z,98381.44
2023-03-22T05:09:27.119Z,98388.25
2023-03-22T05:12:31.944Z,98386.41
2023-03-22T05:15:44.472Z,98386.19
2023-03-22T05:18:54.442Z,98381.44
2023-03-22T05:22:02.103Z,98384.34
2023-03-22T05:25:24.702Z,98389.91
2023-03-22T05:28:29.041Z,98385.97
2023-03-22T05:31:53.757Z,98378.75
2023-03-22T05:35:03.676Z,98385.97
2023-03-22T05:38:14.637Z,98384.53
2023-03-22T05:41:24.344Z,98377.31
2023-03-22T05:44:28.599Z,98392.75
2023-03-22T05:47:43.329Z,98380.59
2023-03-22T05:50:55.484Z,98390.47
2023-03-22T05:53:59.587Z,98381.19
2023-03-22T05:57:11.074Z,98390.28
2023-03-22T06:00:18.249Z,98387.78
2023-03-22T06:03:41.822Z,98386.75
2023-03-22T06:06:55.065Z,98388.97
2023-03-22T06:10:15.484Z,98386.50
2023-03-22T06:13:20.197Z,98379.84
2023-03-22T06:16:24.669Z,98384.59
2023-03-22T06:19:29.407Z,98387.91
2023-03-22T06:22:34.900Z,98388.28
2023-03-22T06:25:39.172Z,98377.94
2023-03-22T06:28:43.090Z,98378.34
2023-03-22T06:31:49.163Z,98384.91
2023-03-22T06:34:52.746Z,98394.78
2023-03-22T06:38:00.147Z,98393.47
2023-03-22T06:41:04.478Z,98385.41
2023-03-22T06:44:08.529Z,98392.22
2023-03-22T06:47:27.576Z,98388.50
2023-03-22T06:51:04.987Z,98389.31
2023-03-22T06:54:14.866Z,98399.66
2023-03-22T06:57:18.995Z,98401.31
2023-03-22T07:00:23.320Z,98402.41
2023-03-22T07:03:27.382Z,98396.44
2023-03-22T07:06:34.847Z,98414.66
2023-03-22T07:09:41.949Z,98407.47
2023-03-22T07:12:45.798Z,98405.38
2023-03-22T07:15:57.651Z,98415.03
2023-03-22T07:19:31.316Z,98411.25
2023-03-22T07:22:37.964Z,98402.09
2023-03-22T07:25:43.236Z,98406.38
2023-03-22T07:29:01.828Z,98407.75
2023-03-22T07:32:09.042Z,98395.72
2023-03-22T07:35:30.414Z,98397.44
2023-03-22T07:38:34.523Z,98396.25
2023-03-22T07:41:41.354Z,98388.16
2023-03-22T07:45:06.753Z,98389.50
2023-03-22T07:48:22.645Z,98388.00
2023-03-22T07:51:39.392Z,98394.47
2023-03-22T07:54:43.643Z,98399.25
2023-03-22T07:57:48.772Z,98387.03
2023-03-22T08:00:53.008Z,98385.75
2023-03-22T08:04:15.690Z,98390.91
2023-03-22T08:07:27.295Z,98382.25
2023-03-22T08:10:32.735Z,98382.25
2023-03-22T08:13:38.295Z,98370.31
2023-03-22T08:16:45.051Z,98364.94
2023-03-22T08:19:50.154Z,98365.03
2023-03-22T08:22:59.135Z,98367.53
2023-03-22T08:26:39.426Z,98363.13
2023-03-22T08:29:53.173Z,98362.69
2023-03-22T08:32:57.146Z,98356.00
2023-03-22T08:36:12.490Z,98355.50
2023-03-22T08:39:24.732Z,98348.88
2023-03-22T08:42:39.431Z,98341.00
2023-03-22T08:45:45.020Z,98355.41
2023-03-22T08:48:53.042Z,98348.00
2023-03-22T08:52:04.477Z,98342.13
2023-03-22T08:55:26.837Z,98347.28
2023-03-22T08:58:48.840Z,98348.78
2023-03-22T09:02:11.021Z,98351.28
2023-03-22T09:05:16.466Z,98352.47
2023-03-22T09:08:21.367Z,98350.91
2023-03-22T09:11:31.426Z,98349.00
2023-03-22T09:14:35.194Z,98346.34
2023-03-22T09:17:41.829Z,98333.19
2023-03-22T09:20:47.459Z,98339.94
2023-03-22T09:23:55.578Z,98340.81
2023-03-22T09:27:05.897Z,98342.22
2023-03-22T09:30:11.449Z,98338.34
2023-03-22T09:33:16.593Z,98338.38
2023-03-22T09:36:24.876Z,98326.91
2023-03-22T09:39:28.790Z,98323.91
2023-03-22T09:42:42.404Z,98325.66
2023-03-22T09:45:52.798Z,98323.66
2023-03-22T09:49:02.856Z,98323.00
2023-03-22T09:52:15.175Z,98323.44
2023-03-22T09:55:24.090Z,98319.38
2023-03-22T09:58:38.020Z,98307.13
2023-03-22T10:01:52.808Z,98315.19
2023-03-22T10:05:13.216Z,98312.59
2023-03-22T10:08:37.248Z,98302.09
2023-03-22T10:11:47.905Z,98300.53
2023-03-22T10:15:03.167Z,98301.38
2023-03-22T10:18:14.412Z,98302.66
2023-03-22T10:21:21.976Z,98308.59
2023-03-22T10:24:31.341Z,98306.34
2023-03-22T10:27:36.231Z,98300.47
2023-03-22T10:30:43.640Z,98299.00
2023-03-22T10:33:57.255Z,98307.34
2023-03-22T10:37:07.460Z,98299.00
2023-03-22T10:40:21.792Z,98294.13
2023-03-22T10:43:33.328Z,98295.66
2023-03-22T10:46:42.274Z,98299.53
2023-03-22T10:49:53.130Z,98295.94
2023-03-22T10:53:06.452Z,98288.47
2023-03-22T10:56:16.012Z,98283.28
2023-03-22T10:59:49.964Z,98280.81
2023-03-22T11:02:59.313Z,98280.09
2023-03-22T11:06:08.780Z,98272.91
2023-03-22T11:09:18.091Z,98276.31
2023-03-22T11:12:22.434Z,98264.38
2023-03-22T11:15:31.153Z,98261.75
2023-03-22T11:18:36.671Z,98254.44
2023-03-22T11:21:44.210Z,98254.47
2023-03-22T11:24:49.884Z,98259.94
2023-03-22T11:27:58.085Z,98245.19
2023-03-22T11:31:07.313Z,98239.13
2023-03-22T11:34:19.969Z,98246.47
2023-03-22T11:37:23.937Z,98232.81
2023-03-22T11:40:33.031Z,98239.91
2023-03-22T11:43:40.975Z,98248.91
2023-03-22T11:46:55.641Z,98247.59
2023-03-22T11:50:05.223Z,98244.81
2023-03-22T11:53:16.568Z,98227.88
2023-03-22T11:56:31.828Z,98222.59
2023-03-22T11:59:40.643Z,98206.06
2023-03-22T12:02:52.526Z,98213.78
2023-03-22T12:05:57.297Z,98216.47
2023-03-22T12:09:11.816Z,98220.47
2023-03-22T12:12:23.071Z,98225.19
2023-03-22T12:15:32.912Z,98221.88
2023-03-22T12:18:47.405Z,98217.34
2023-03-22T12:21:53.883Z,98218.69
2023-03-22T12:24:57.733Z,98214.47
2023-03-22T12:28:10.804Z,98209.59
2023-03-22T12:31:22.642Z,98199.91
2023-03-22T12:34:38.383Z,98209.00
2023-03-22T12:37:45.872Z,98208.41
2023-03-22T12:40:54.021Z,98197.75
2023-03-22T12:44:05.348Z,98184.44
2023-03-22T12:47:23.019Z,98183.88
2023-03-22T12:50:36.019Z,98188.06
2023-03-22T12:53:45.735Z,98188.88
2023-03-22T12:56:51.764Z,98179.72
2023-03-22T13:00:10.315Z,98181.88
2023-03-22T13:03:28.819Z,98188.75
2023-03-22T13:06:57.701Z,98183.97
2023-03-22T13:10:22.871Z,98170.72
2023-03-22T13:13:48.442Z,98164.75
2023-03-22T13:17:00.327Z,98161.69
2023-03-22T13:20:28.079Z,98159.22
2023-03-22T13:23:32.091Z,98153.66
2023-03-22T13:26:45.729Z,98155.06
2023-03-22T13:29:53.955Z,98159.59
2023-03-22T13:33:04.639Z,98145.97
2023-03-22T13:36:24.965Z,98147.38
2023-03-22T13:39:36.326Z,98149.69
2023-03-22T13:42:42.266Z,98145.63
2023-03-22T13:46:13.582Z,98146.97
2023-03-22T13:49:51.274Z,98143.31
2023-03-22T13:53:04.302Z,98134.06
2023-03-22T13:56:12.338Z,98139.22
2023-03-22T13:59:27.222Z,98138.13
2023-03-22T14:02:40.875Z,98134.66
2023-03-22T14:05:49.721Z,98126.44
2023-03-22T14:09:04.496Z,98136.00
2023-03-22T14:12:20.801Z,98133.06
2023-03-22T14:15:29.822Z,98128.59
2023-03-22T14:18:41.217Z,98127.34
